sensor_id;sensor_type;location;lat;lon;timestamp;pressure;altitude;pressure_sealevel;temperature;humidity
62436;BME280;48480;50.252;18.848;2024-01-30T00:01:29;100466.94;;;1.81;73.34
62436;BME280;48480;50.252;18.848;2024-01-30T00:04:13;100466.67;;;1.86;73.36
62436;BME280;48480;50.252;18.848;2024-01-30T00:06:57;100471.39;;;1.92;73.20
62436;BME280;48480;50.252;18.848;2024-01-30T00:09:42;100465.11;;;1.92;73.25
62436;BME280;48480;50.252;18.848;2024-01-30T00:12:27;100467.89;;;1.90;73.17
62436;BME280;48480;50.252;18.848;2024-01-30T00:15:12;100465.61;;;1.89;73.21
62436;BME280;48480;50.252;18.848;2024-01-30T00:17:56;100464.20;;;1.85;73.24
62436;BME280;48480;50.252;18.848;2024-01-30T00:20:40;100468.45;;;1.80;73.20
62436;BME280;48480;50.252;18.848;2024-01-30T00:23:24;100467.29;;;1.73;73.51
62436;BME280;48480;50.252;18.848;2024-01-30T00:26:09;100465.31;;;1.68;73.70
62436;BME280;48480;50.252;18.848;2024-01-30T00:28:54;100458.70;;;1.64;73.76
62436;BME280;48480;50.252;18.848;2024-01-30T00:31:38;100466.21;;;1.61;73.63
62436;BME280;48480;50.252;18.848;2024-01-30T00:34:22;100465.70;;;1.52;73.64
62436;BME280;48480;50.252;18.848;2024-01-30T00:37:06;100462.14;;;1.44;73.77
62436;BME280;48480;50.252;18.848;2024-01-30T00:39:50;100465.93;;;1.41;73.96
62436;BME280;48480;50.252;18.848;2024-01-30T00:42:35;100465.77;;;1.38;73.97
62436;BME280;48480;50.252;18.848;2024-01-30T00:45:19;100462.43;;;1.34;73.88
62436;BME280;48480;50.252;18.848;2024-01-30T00:48:04;100461.47;;;1.32;73.80
62436;BME280;48480;50.252;18.848;2024-01-30T00:50:48;100456.98;;;1.35;73.74
62436;BME280;48480;50.252;18.848;2024-01-30T00:53:32;100458.52;;;1.44;73.68
62436;BME280;48480;50.252;18.848;2024-01-30T00:56:16;100456.50;;;1.52;73.55
62436;BME280;48480;50.252;18.848;2024-01-30T00:59:02;100454.95;;;1.61;73.52
62436;BME280;48480;50.252;18.848;2024-01-30T01:01:46;100454.52;;;1.65;73.55
62436;BME280;48480;50.252;18.848;2024-01-30T01:04:31;100453.75;;;1.68;73.34
62436;BME280;48480;50.252;18.848;2024-01-30T01:07:15;100451.72;;;1.68;73.32
62436;BME280;48480;50.252;18.848;2024-01-30T01:09:59;100451.36;;;1.65;73.49
62436;BME280;48480;50.252;18.848;2024-01-30T01:12:43;100447.78;;;1.61;73.48
62436;BME280;48480;50.252;18.848;2024-01-30T01:15:27;100441.00;;;1.54;73.48
62436;BME280;48480;50.252;18.848;2024-01-30T01:18:11;100438.27;;;1.50;73.33
62436;BME280;48480;50.252;18.848;2024-01-30T01:20:56;100435.48;;;1.46;73.40
62436;BME280;48480;50.252;18.848;2024-01-30T01:23:40;100433.66;;;1.42;73.42
62436;BME280;48480;50.252;18.848;2024-01-30T01:26:24;100429.39;;;1.38;73.54
62436;BME280;48480;50.252;18.848;2024-01-30T01:29:08;100427.55;;;1.35;73.69
62436;BME280;48480;50.252;18.848;2024-01-30T01:31:56;100425.33;;;1.30;73.78
62436;BME280;48480;50.252;18.848;2024-01-30T01:34:40;100419.92;;;1.26;73.93
62436;BME280;48480;50.252;18.848;2024-01-30T01:37:24;100420.52;;;1.23;74.10
62436;BME280;48480;50.252;18.848;2024-01-30T01:40:10;100421.57;;;1.26;74.05
62436;BME280;48480;50.252;18.848;2024-01-30T01:42:55;100425.90;;;1.34;74.01
62436;BME280;48480;50.252;18.848;2024-01-30T01:45:39;100423.66;;;1.40;73.74
62436;BME280;48480;50.252;18.848;2024-01-30T01:48:23;100427.29;;;1.37;73.93
62436;BME280;48480;50.252;18.848;2024-01-30T01:51:09;100420.61;;;1.34;73.99
62436;BME280;48480;50.252;18.848;2024-01-30T01:53:54;100424.48;;;1.29;73.93
62436;BME280;48480;50.252;18.848;2024-01-30T01:56:40;100420.41;;;1.25;74.41
62436;BME280;48480;50.252;18.848;2024-01-30T01:59:26;100420.88;;;1.24;74.49
62436;BME280;48480;50.252;18.848;2024-01-30T02:02:11;100419.45;;;1.22;74.52
62436;BME280;48480;50.252;18.848;2024-01-30T02:04:59;100421.66;;;1.19;74.56
62436;BME280;48480;50.252;18.848;2024-01-30T02:07:44;100420.80;;;1.19;74.69
62436;BME280;48480;50.252;18.848;2024-01-30T02:10:28;100419.95;;;1.14;74.57
62436;BME280;48480;50.252;18.848;2024-01-30T02:13:13;100418.36;;;1.14;74.82
62436;BME280;48480;50.252;18.848;2024-01-30T02:15:57;100413.39;;;1.21;74.71
62436;BME280;48480;50.252;18.848;2024-01-30T02:18:41;100418.10;;;1.33;74.65
62436;BME280;48480;50.252;18.848;2024-01-30T02:21:28;100416.14;;;1.43;74.47
62436;BME280;48480;50.252;18.848;2024-01-30T02:24:13;100413.03;;;1.47;74.32
62436;BME280;48480;50.252;18.848;2024-01-30T02:26:57;100403.79;;;1.46;74.21
62436;BME280;48480;50.252;18.848;2024-01-30T02:29:41;100401.59;;;1.42;74.30
62436;BME280;48480;50.252;18.848;2024-01-30T02:32:26;100401.52;;;1.40;74.43
62436;BME280;48480;50.252;18.848;2024-01-30T02:35:10;100403.45;;;1.36;74.43
62436;BME280;48480;50.252;18.848;2024-01-30T02:37:54;100399.83;;;1.34;74.34
62436;BME280;48480;50.252;18.848;2024-01-30T02:40:38;100397.67;;;1.34;74.25
62436;BME280;48480;50.252;18.848;2024-01-30T02:43:22;100398.20;;;1.36;74.20
62436;BME280;48480;50.252;18.848;2024-01-30T02:46:06;100400.92;;;1.35;74.14
62436;BME280;48480;50.252;18.848;2024-01-30T02:48:51;100404.23;;;1.33;74.01
62436;BME280;48480;50.252;18.848;2024-01-30T02:51:35;100407.35;;;1.28;74.09
62436;BME280;48480;50.252;18.848;2024-01-30T02:54:20;100410.02;;;1.25;74.18
62436;BME280;48480;50.252;18.848;2024-01-30T02:57:04;100407.34;;;1.24;74.14
62436;BME280;48480;50.252;18.848;2024-01-30T02:59:48;100407.24;;;1.22;74.12
62436;BME280;48480;50.252;18.848;2024-01-30T03:02:32;100404.77;;;1.21;74.12
62436;BME280;48480;50.252;18.848;2024-01-30T03:05:17;100400.54;;;1.23;74.16
62436;BME280;48480;50.252;18.848;2024-01-30T03:08:04;100402.27;;;1.32;73.96
62436;BME280;48480;50.252;18.848;2024-01-30T03:10:48;100398.55;;;1.40;73.78
62436;BME280;48480;50.252;18.848;2024-01-30T03:13:33;100397.09;;;1.43;73.90
62436;BME280;48480;50.252;18.848;2024-01-30T03:16:17;100400.75;;;1.41;73.66
62436;BME280;48480;50.252;18.848;2024-01-30T03:19:01;100392.59;;;1.34;73.90
62436;BME280;48480;50.252;18.848;2024-01-30T03:21:47;100400.72;;;1.34;73.92
62436;BME280;48480;50.252;18.848;2024-01-30T03:24:32;100400.45;;;1.28;74.03
62436;BME280;48480;50.252;18.848;2024-01-30T03:27:16;100396.91;;;1.24;74.23
62436;BME280;48480;50.252;18.848;2024-01-30T03:30:00;100395.98;;;1.21;74.39
62436;BME280;48480;50.252;18.848;2024-01-30T03:32:45;100396.11;;;1.18;74.41
62436;BME280;48480;50.252;18.848;2024-01-30T03:35:29;100394.94;;;1.15;74.45
62436;BME280;48480;50.252;18.848;2024-01-30T03:38:13;100393.02;;;1.14;74.47
62436;BME280;48480;50.252;18.848;2024-01-30T03:40:57;100390.30;;;1.13;74.48
62436;BME280;48480;50.252;18.848;2024-01-30T03:43:41;100386.85;;;1.11;74.62
62436;BME280;48480;50.252;18.848;2024-01-30T03:46:25;100387.91;;;1.07;74.65
62436;BME280;48480;50.252;18.848;2024-01-30T03:49:09;100390.48;;;1.06;74.66
62436;BME280;48480;50.252;18.848;2024-01-30T03:51:54;100391.04;;;1.09;74.70
62436;BME280;48480;50.252;18.848;2024-01-30T03:54:38;100390.86;;;1.14;74.64
62436;BME280;48480;50.252;18.848;2024-01-30T03:57:23;100394.12;;;1.23;74.62
62436;BME280;48480;50.252;18.848;2024-01-30T04:00:08;100394.55;;;1.27;74.54
62436;BME280;48480;50.252;18.848;2024-01-30T04:02:52;100393.98;;;1.30;74.44
62436;BME280;48480;50.252;18.848;2024-01-30T04:05:36;100390.73;;;1.30;74.36
62436;BME280;48480;50.252;18.848;2024-01-30T04:08:20;100384.77;;;1.26;74.24
62436;BME280;48480;50.252;18.848;2024-01-30T04:11:05;100384.19;;;1.23;74.49
62436;BME280;48480;50.252;18.848;2024-01-30T04:13:49;100382.33;;;1.23;74.55
62436;BME280;48480;50.252;18.848;2024-01-30T04:16:33;100381.88;;;1.20;74.40
62436;BME280;48480;50.252;18.848;2024-01-30T04:19:18;100382.70;;;1.19;74.31
62436;BME280;48480;50.252;18.848;2024-01-30T04:22:02;100377.45;;;1.14;74.36
62436;BME280;48480;50.252;18.848;2024-01-30T04:24:46;100373.36;;;1.08;74.41
62436;BME280;48480;50.252;18.848;2024-01-30T04:27:30;100381.39;;;1.12;74.33
62436;BME280;48480;50.252;18.848;2024-01-30T04:30:14;100381.96;;;1.19;74.10
62436;BME280;48480;50.252;18.848;2024-01-30T04:32:59;100378.33;;;1.22;74.12
62436;BME280;48480;50.252;18.848;2024-01-30T04:35:43;100381.41;;;1.32;73.86
62436;BME280;48480;50.252;18.848;2024-01-30T04:38:28;100383.97;;;1.33;73.91
62436;BME280;48480;50.252;18.848;2024-01-30T04:41:12;100381.94;;;1.27;73.98
62436;BME280;48480;50.252;18.848;2024-01-30T04:43:57;100385.12;;;1.24;74.02
62436;BME280;48480;50.252;18.848;2024-01-30T04:46:41;100391.19;;;1.24;73.99
62436;BME280;48480;50.252;18.848;2024-01-30T04:49:25;100394.39;;;1.24;73.96
62436;BME280;48480;50.252;18.848;2024-01-30T04:52:09;100390.98;;;1.24;73.78
62436;BME280;48480;50.252;18.848;2024-01-30T04:54:54;100390.17;;;1.22;73.57
62436;BME280;48480;50.252;18.848;2024-01-30T04:57:39;100391.33;;;1.18;73.79
62436;BME280;48480;50.252;18.848;2024-01-30T05:00:23;100389.45;;;1.14;73.87
62436;BME280;48480;50.252;18.848;2024-01-30T05:03:07;100386.60;;;1.09;73.75
62436;BME280;48480;50.252;18.848;2024-01-30T05:05:51;100389.09;;;1.05;73.84
62436;BME280;48480;50.252;18.848;2024-01-30T05:08:36;100382.84;;;1.02;74.02
62436;BME280;48480;50.252;18.848;2024-01-30T05:11:23;100386.02;;;1.00;73.96
62436;BME280;48480;50.252;18.848;2024-01-30T05:14:07;100388.49;;;0.99;74.07
62436;BME280;48480;50.252;18.848;2024-01-30T05:16:52;100386.23;;;0.96;74.02
62436;BME280;48480;50.252;18.848;2024-01-30T05:19:37;100389.84;;;0.94;74.09
62436;BME280;48480;50.252;18.848;2024-01-30T05:22:21;100395.00;;;0.95;74.01
62436;BME280;48480;50.252;18.848;2024-01-30T05:25:06;100391.42;;;1.00;73.89
62436;BME280;48480;50.252;18.848;2024-01-30T05:27:51;100388.52;;;1.05;73.90
62436;BME280;48480;50.252;18.848;2024-01-30T05:30:35;100392.14;;;1.07;73.72
62436;BME280;48480;50.252;18.848;2024-01-30T05:33:19;100390.28;;;1.04;73.79
62436;BME280;48480;50.252;18.848;2024-01-30T05:36:03;100394.46;;;1.02;73.95
62436;BME280;48480;50.252;18.848;2024-01-30T05:38:48;100393.73;;;1.01;74.02
62436;BME280;48480;50.252;18.848;2024-01-30T05:41:32;100394.35;;;0.99;74.22
62436;BME280;48480;50.252;18.848;2024-01-30T05:44:16;100395.16;;;0.96;74.20
62436;BME280;48480;50.252;18.848;2024-01-30T05:47:00;100398.05;;;0.93;74.23
62436;BME280;48480;50.252;18.848;2024-01-30T05:49:44;100394.96;;;0.89;74.39
62436;BME280;48480;50.252;18.848;2024-01-30T05:52:29;100391.70;;;0.85;74.41
62436;BME280;48480;50.252;18.848;2024-01-30T05:55:13;100390.94;;;0.82;74.50
62436;BME280;48480;50.252;18.848;2024-01-30T05:57:57;100390.86;;;0.81;74.48
62436;BME280;48480;50.252;18.848;2024-01-30T06:00:41;100389.08;;;0.86;74.49
62436;BME280;48480;50.252;18.848;2024-01-30T06:03:25;100386.98;;;0.93;74.46
62436;BME280;48480;50.252;18.848;2024-01-30T06:06:09;100393.13;;;1.04;74.21
62436;BME280;48480;50.252;18.848;2024-01-30T06:08:53;100389.58;;;1.07;74.18
62436;BME280;48480;50.252;18.848;2024-01-30T06:11:39;100391.49;;;1.03;74.12
62436;BME280;48480;50.252;18.848;2024-01-30T06:14:24;100390.36;;;1.01;74.28
62436;BME280;48480;50.252;18.848;2024-01-30T06:17:08;100388.73;;;1.00;74.24
62436;BME280;48480;50.252;18.848;2024-01-30T06:19:53;100388.74;;;0.96;74.22
62436;BME280;48480;50.252;18.848;2024-01-30T06:22:37;100389.06;;;0.93;74.31
62436;BME280;48480;50.252;18.848;2024-01-30T06:25:22;100386.55;;;0.90;74.28
62436;BME280;48480;50.252;18.848;2024-01-30T06:28:06;100384.55;;;0.85;74.54
62436;BME280;48480;50.252;18.848;2024-01-30T06:30:50;100387.85;;;0.83;74.48
62436;BME280;48480;50.252;18.848;2024-01-30T06:33:35;100387.49;;;0.89;74.44
62436;BME280;48480;50.252;18.848;2024-01-30T06:36:19;100392.31;;;0.98;74.28
62436;BME280;48480;50.252;18.848;2024-01-30T06:39:03;100391.90;;;1.08;74.13
62436;BME280;48480;50.252;18.848;2024-01-30T06:41:48;100390.21;;;1.14;73.91
62436;BME280;48480;50.252;18.848;2024-01-30T06:44:32;100390.06;;;1.12;74.18
62436;BME280;48480;50.252;18.848;2024-01-30T06:47:16;100390.84;;;1.10;74.12
62436;BME280;48480;50.252;18.848;2024-01-30T06:50:01;100392.59;;;1.10;74.11
62436;BME280;48480;50.252;18.848;2024-01-30T06:52:46;100393.45;;;1.09;74.01
62436;BME280;48480;50.252;18.848;2024-01-30T06:55:30;100392.22;;;1.09;74.02
62436;BME280;48480;50.252;18.848;2024-01-30T06:58:15;100392.35;;;1.08;74.08
62436;BME280;48480;50.252;18.848;2024-01-30T07:00:59;100396.95;;;1.06;74.09
62436;BME280;48480;50.252;18.848;2024-01-30T07:03:43;100401.63;;;1.02;74.04
62436;BME280;48480;50.252;18.848;2024-01-30T07:06:27;100397.73;;;0.98;74.21
62436;BME280;48480;50.252;18.848;2024-01-30T07:09:11;100401.95;;;1.05;74.14
62436;BME280;48480;50.252;18.848;2024-01-30T07:11:56;100398.95;;;1.17;74.06
62436;BME280;48480;50.252;18.848;2024-01-30T07:14:42;100400.05;;;1.27;73.86
62436;BME280;48480;50.252;18.848;2024-01-30T07:17:26;100404.38;;;1.37;73.68
62436;BME280;48480;50.252;18.848;2024-01-30T07:20:12;100409.16;;;1.42;73.64
62436;BME280;48480;50.252;18.848;2024-01-30T07:22:56;100410.38;;;1.45;73.49
62436;BME280;48480;50.252;18.848;2024-01-30T07:25:42;100415.52;;;1.46;73.36
62436;BME280;48480;50.252;18.848;2024-01-30T07:28:27;100410.33;;;1.46;73.45
62436;BME280;48480;50.252;18.848;2024-01-30T07:31:11;100411.96;;;1.49;73.45
62436;BME280;48480;50.252;18.848;2024-01-30T07:33:55;100410.25;;;1.50;73.20
62436;BME280;48480;50.252;18.848;2024-01-30T07:36:39;100404.64;;;1.51;73.30
62436;BME280;48480;50.252;18.848;2024-01-30T07:39:23;100403.73;;;1.51;73.23
62436;BME280;48480;50.252;18.848;2024-01-30T07:42:07;100407.11;;;1.51;73.27
62436;BME280;48480;50.252;18.848;2024-01-30T07:44:52;100403.13;;;1.49;73.23
62436;BME280;48480;50.252;18.848;2024-01-30T07:47:36;100408.11;;;1.57;73.19
62436;BME280;48480;50.252;18.848;2024-01-30T07:50:21;100412.63;;;1.68;73.23
62436;BME280;48480;50.252;18.848;2024-01-30T07:53:05;100414.79;;;1.79;72.98
62436;BME280;48480;50.252;18.848;2024-01-30T07:55:49;100415.33;;;1.86;72.77
62436;BME280;48480;50.252;18.848;2024-01-30T07:58:33;100414.84;;;1.91;72.80
62436;BME280;48480;50.252;18.848;2024-01-30T08:01:18;100412.35;;;1.98;72.73
62436;BME280;48480;50.252;18.848;2024-01-30T08:04:02;100407.33;;;2.11;72.81
62436;BME280;48480;50.252;18.848;2024-01-30T08:06:47;100412.45;;;2.47;72.39
62436;BME280;48480;50.252;18.848;2024-01-30T08:09:31;100409.96;;;3.01;71.31
62436;BME280;48480;50.252;18.848;2024-01-30T08:12:15;100406.88;;;3.58;69.82
62436;BME280;48480;50.252;18.848;2024-01-30T08:15:00;100413.02;;;4.17;68.70
62436;BME280;48480;50.252;18.848;2024-01-30T08:17:44;100415.55;;;4.79;66.59
62436;BME280;48480;50.252;18.848;2024-01-30T08:20:29;100417.05;;;5.47;64.66
62436;BME280;48480;50.252;18.848;2024-01-30T08:23:13;100422.38;;;6.15;63.04
62436;BME280;48480;50.252;18.848;2024-01-30T08:25:57;100420.38;;;6.70;61.15
62436;BME280;48480;50.252;18.848;2024-01-30T08:28:43;100422.30;;;7.18;59.12
62436;BME280;48480;50.252;18.848;2024-01-30T08:31:27;100417.66;;;7.64;58.19
62436;BME280;48480;50.252;18.848;2024-01-30T08:34:11;100420.65;;;8.10;55.74
62436;BME280;48480;50.252;18.848;2024-01-30T08:36:55;100418.55;;;8.44;54.83
62436;BME280;48480;50.252;18.848;2024-01-30T08:39:39;100420.41;;;8.77;53.42
62436;BME280;48480;50.252;18.848;2024-01-30T08:42:25;100396.08;;;8.92;52.45
62436;BME280;48480;50.252;18.848;2024-01-30T08:45:10;100412.71;;;9.25;51.41
62436;BME280;48480;50.252;18.848;2024-01-30T08:47:54;100408.77;;;9.42;50.17
62436;BME280;48480;50.252;18.848;2024-01-30T08:50:38;100412.02;;;9.58;49.77
62436;BME280;48480;50.252;18.848;2024-01-30T08:53:23;100407.51;;;9.68;48.68
62436;BME280;48480;50.252;18.848;2024-01-30T08:56:08;100413.97;;;9.78;48.01
62436;BME280;48480;50.252;18.848;2024-01-30T08:58:52;100416.18;;;9.84;47.68
62436;BME280;48480;50.252;18.848;2024-01-30T09:01:37;100412.79;;;9.94;47.76
62436;BME280;48480;50.252;18.848;2024-01-30T09:04:21;100416.18;;;10.14;47.14
62436;BME280;48480;50.252;18.848;2024-01-30T09:07:09;100413.48;;;10.28;46.12
62436;BME280;48480;50.252;18.848;2024-01-30T09:09:53;100385.39;;;10.07;45.63
62436;BME280;48480;50.252;18.848;2024-01-30T09:12:38;100413.16;;;10.23;45.43
62436;BME280;48480;50.252;18.848;2024-01-30T09:15:21;100412.06;;;10.22;45.23
62436;BME280;48480;50.252;18.848;2024-01-30T09:18:06;100409.83;;;10.23;45.29
62436;BME280;48480;50.252;18.848;2024-01-30T09:20:50;100408.96;;;10.25;44.86
62436;BME280;48480;50.252;18.848;2024-01-30T09:23:34;100411.59;;;10.28;44.82
62436;BME280;48480;50.252;18.848;2024-01-30T09:26:13;100409.36;;;10.27;44.09
62436;BME280;48480;50.252;18.848;2024-01-30T09:28:57;100405.10;;;10.26;44.52
62436;BME280;48480;50.252;18.848;2024-01-30T09:31:45;100405.55;;;10.30;44.83
62436;BME280;48480;50.252;18.848;2024-01-30T09:34:29;100402.14;;;10.33;43.82
62436;BME280;48480;50.252;18.848;2024-01-30T09:37:13;100403.50;;;10.29;43.90
62436;BME280;48480;50.252;18.848;2024-01-30T09:39:59;100404.63;;;10.26;43.54
62436;BME280;48480;50.252;18.848;2024-01-30T09:42:46;100406.46;;;10.28;43.62
62436;BME280;48480;50.252;18.848;2024-01-30T09:45:32;100405.59;;;10.36;44.24
62436;BME280;48480;50.252;18.848;2024-01-30T09:48:16;100404.10;;;10.53;44.37
62436;BME280;48480;50.252;18.848;2024-01-30T09:51:00;100400.83;;;10.71;43.80
62436;BME280;48480;50.252;18.848;2024-01-30T09:53:47;100400.41;;;10.80;43.00
62436;BME280;48480;50.252;18.848;2024-01-30T09:56:31;100395.52;;;10.77;42.74
62436;BME280;48480;50.252;18.848;2024-01-30T09:59:15;100391.87;;;10.77;43.05
62436;BME280;48480;50.252;18.848;2024-01-30T10:02:00;100390.10;;;10.68;42.69
62436;BME280;48480;50.252;18.848;2024-01-30T10:04:45;100389.34;;;10.54;42.54
62436;BME280;48480;50.252;18.848;2024-01-30T10:07:31;100390.52;;;10.42;42.49
62436;BME280;48480;50.252;18.848;2024-01-30T10:10:15;100385.59;;;10.30;43.07
62436;BME280;48480;50.252;18.848;2024-01-30T10:12:59;100384.39;;;10.34;43.33
62436;BME280;48480;50.252;18.848;2024-01-30T10:15:44;100380.89;;;10.38;43.25
62436;BME280;48480;50.252;18.848;2024-01-30T10:18:29;100370.49;;;10.42;43.43
62436;BME280;48480;50.252;18.848;2024-01-30T10:21:13;100374.48;;;10.48;43.15
62436;BME280;48480;50.252;18.848;2024-01-30T10:23:57;100369.00;;;10.49;43.05
62436;BME280;48480;50.252;18.848;2024-01-30T10:26:43;100368.52;;;10.47;42.47
62436;BME280;48480;50.252;18.848;2024-01-30T10:29:27;100363.96;;;10.42;42.60
62436;BME280;48480;50.252;18.848;2024-01-30T10:32:12;100345.05;;;10.29;42.60
62436;BME280;48480;50.252;18.848;2024-01-30T10:34:57;100361.73;;;10.31;42.29
62436;BME280;48480;50.252;18.848;2024-01-30T10:37:43;100360.30;;;10.18;42.89
62436;BME280;48480;50.252;18.848;2024-01-30T10:40:29;100355.15;;;10.15;43.04
62436;BME280;48480;50.252;18.848;2024-01-30T10:43:15;100353.59;;;10.10;42.63
62436;BME280;48480;50.252;18.848;2024-01-30T10:46:18;100347.62;;;10.04;42.93
62436;BME280;48480;50.252;18.848;2024-01-30T10:49:05;100351.70;;;10.05;43.33
62436;BME280;48480;50.252;18.848;2024-01-30T10:51:54;100345.00;;;10.09;43.29
62436;BME280;48480;50.252;18.848;2024-01-30T10:54:40;100340.06;;;10.05;43.19
62436;BME280;48480;50.252;18.848;2024-01-30T10:57:25;100338.17;;;10.00;43.29
62436;BME280;48480;50.252;18.848;2024-01-30T11:00:15;100339.35;;;9.95;43.48
62436;BME280;48480;50.252;18.848;2024-01-30T11:03:01;100334.63;;;9.96;43.70
62436;BME280;48480;50.252;18.848;2024-01-30T11:05:49;100333.23;;;9.91;43.42
62436;BME280;48480;50.252;18.848;2024-01-30T11:08:35;100323.88;;;9.81;43.84
62436;BME280;48480;50.252;18.848;2024-01-30T11:11:20;100323.23;;;9.81;43.76
62436;BME280;48480;50.252;18.848;2024-01-30T11:14:05;100323.59;;;9.79;44.00
62436;BME280;48480;50.252;18.848;2024-01-30T11:16:49;100319.73;;;9.78;44.03
62436;BME280;48480;50.252;18.848;2024-01-30T11:19:37;100315.13;;;9.74;44.18
62436;BME280;48480;50.252;18.848;2024-01-30T11:22:48;100316.13;;;9.69;44.13
62436;BME280;48480;50.252;18.848;2024-01-30T11:25:34;100317.67;;;9.52;44.03
62436;BME280;48480;50.252;18.848;2024-01-30T11:28:21;100318.52;;;9.36;44.29
62436;BME280;48480;50.252;18.848;2024-01-30T11:31:06;100317.70;;;9.30;44.44
62436;BME280;48480;50.252;18.848;2024-01-30T11:33:56;100316.68;;;9.21;44.53
62436;BME280;48480;50.252;18.848;2024-01-30T11:36:43;100312.80;;;9.15;44.85
62436;BME280;48480;50.252;18.848;2024-01-30T11:39:30;100307.86;;;9.14;45.05
62436;BME280;48480;50.252;18.848;2024-01-30T11:42:14;100303.02;;;9.19;45.24
62436;BME280;48480;50.252;18.848;2024-01-30T11:45:00;100293.77;;;9.24;45.32
62436;BME280;48480;50.252;18.848;2024-01-30T11:47:46;100292.09;;;9.29;45.37
62436;BME280;48480;50.252;18.848;2024-01-30T11:50:35;100289.31;;;9.34;45.30
62436;BME280;48480;50.252;18.848;2024-01-30T11:53:19;100286.38;;;9.37;45.11
62436;BME280;48480;50.252;18.848;2024-01-30T11:56:06;100285.70;;;9.41;45.01
62436;BME280;48480;50.252;18.848;2024-01-30T11:58:50;100280.40;;;9.40;44.72
62436;BME280;48480;50.252;18.848;2024-01-30T12:01:36;100278.14;;;9.39;45.06
62436;BME280;48480;50.252;18.848;2024-01-30T12:04:20;100270.26;;;9.35;45.11
62436;BME280;48480;50.252;18.848;2024-01-30T12:07:04;100269.58;;;9.38;45.06
62436;BME280;48480;50.252;18.848;2024-01-30T12:09:53;100268.37;;;9.33;44.99
62436;BME280;48480;50.252;18.848;2024-01-30T12:12:38;100261.55;;;9.25;45.16
62436;BME280;48480;50.252;18.848;2024-01-30T12:15:23;100260.52;;;9.22;45.51
62436;BME280;48480;50.252;18.848;2024-01-30T12:18:07;100253.94;;;9.22;45.71
62436;BME280;48480;50.252;18.848;2024-01-30T12:21:01;100250.92;;;9.21;45.84
62436;BME280;48480;50.252;18.848;2024-01-30T12:23:46;100249.89;;;9.17;45.55
62436;BME280;48480;50.252;18.848;2024-01-30T12:26:30;100244.02;;;9.09;45.72
62436;BME280;48480;50.252;18.848;2024-01-30T12:29:14;100239.33;;;9.02;45.65
62436;BME280;48480;50.252;18.848;2024-01-30T12:31:59;100236.48;;;8.96;45.96
62436;BME280;48480;50.252;18.848;2024-01-30T12:37:43;100228.80;;;8.94;46.60
62436;BME280;48480;50.252;18.848;2024-01-30T12:40:27;100224.69;;;8.95;46.53
62436;BME280;48480;50.252;18.848;2024-01-30T12:43:13;100225.06;;;8.96;46.66
62436;BME280;48480;50.252;18.848;2024-01-30T12:45:58;100223.52;;;8.98;46.79
62436;BME280;48480;50.252;18.848;2024-01-30T12:48:43;100220.53;;;9.00;46.88
62436;BME280;48480;50.252;18.848;2024-01-30T12:51:28;100219.50;;;8.98;46.79
62436;BME280;48480;50.252;18.848;2024-01-30T12:54:12;100215.68;;;8.91;46.90
62436;BME280;48480;50.252;18.848;2024-01-30T12:56:56;100215.50;;;8.87;46.98
62436;BME280;48480;50.252;18.848;2024-01-30T12:59:41;100217.77;;;8.82;47.09
62436;BME280;48480;50.252;18.848;2024-01-30T13:02:25;100214.80;;;8.76;47.21
62436;BME280;48480;50.252;18.848;2024-01-30T13:05:17;100214.41;;;8.71;47.25
62436;BME280;48480;50.252;18.848;2024-01-30T13:08:02;100215.48;;;8.65;47.65
62436;BME280;48480;50.252;18.848;2024-01-30T13:10:46;100219.11;;;8.61;47.87
62436;BME280;48480;50.252;18.848;2024-01-30T13:13:30;100216.21;;;8.58;47.87
62436;BME280;48480;50.252;18.848;2024-01-30T13:16:14;100213.16;;;8.58;47.89
62436;BME280;48480;50.252;18.848;2024-01-30T13:18:59;100216.11;;;8.58;47.53
62436;BME280;48480;50.252;18.848;2024-01-30T13:21:44;100219.70;;;8.52;47.26
62436;BME280;48480;50.252;18.848;2024-01-30T13:24:29;100219.23;;;8.46;47.42
62436;BME280;48480;50.252;18.848;2024-01-30T13:27:14;100214.73;;;8.43;47.60
62436;BME280;48480;50.252;18.848;2024-01-30T13:30:08;100211.19;;;8.39;47.50
62436;BME280;48480;50.252;18.848;2024-01-30T13:32:53;100213.34;;;8.34;47.57
62436;BME280;48480;50.252;18.848;2024-01-30T13:35:38;100218.80;;;8.31;47.99
62436;BME280;48480;50.252;18.848;2024-01-30T13:38:22;100216.11;;;8.30;48.12
62436;BME280;48480;50.252;18.848;2024-01-30T13:41:06;100211.22;;;8.27;48.21
62436;BME280;48480;50.252;18.848;2024-01-30T13:43:50;100206.71;;;8.25;48.47
62436;BME280;48480;50.252;18.848;2024-01-30T13:46:34;100203.86;;;8.21;48.39
62436;BME280;48480;50.252;18.848;2024-01-30T13:49:19;100204.52;;;8.16;48.52
62436;BME280;48480;50.252;18.848;2024-01-30T13:52:04;100205.08;;;8.12;48.76
62436;BME280;48480;50.252;18.848;2024-01-30T13:54:48;100199.75;;;8.07;48.68
62436;BME280;48480;50.252;18.848;2024-01-30T13:57:32;100199.04;;;8.06;48.96
62436;BME280;48480;50.252;18.848;2024-01-30T14:00:20;100193.95;;;8.04;49.07
62436;BME280;48480;50.252;18.848;2024-01-30T14:03:06;100188.32;;;8.01;49.54
62436;BME280;48480;50.252;18.848;2024-01-30T14:05:50;100191.89;;;8.00;49.43
62436;BME280;48480;50.252;18.848;2024-01-30T14:08:34;100192.34;;;7.97;49.56
62436;BME280;48480;50.252;18.848;2024-01-30T14:11:18;100192.73;;;7.93;49.71
62436;BME280;48480;50.252;18.848;2024-01-30T14:14:02;100194.20;;;7.89;50.09
62436;BME280;48480;50.252;18.848;2024-01-30T14:16:47;100194.89;;;7.88;50.44
62436;BME280;48480;50.252;18.848;2024-01-30T14:19:31;100196.29;;;7.89;50.44
62436;BME280;48480;50.252;18.848;2024-01-30T14:22:15;100195.45;;;7.85;50.43